createdAt,value
2019-04-25T00:02:42.663Z,14.10
2019-04-25T00:05:15.643Z,14.10
2019-04-25T00:07:45.933Z,14.20
2019-04-25T00:10:16.641Z,14.10
2019-04-25T00:12:48.067Z,14.10
2019-04-25T00:15:18.472Z,14.10
2019-04-25T00:17:49.990Z,14.10
2019-04-25T00:20:21.407Z,14.10
2019-04-25T00:22:57.404Z,14.20
2019-04-25T00:25:42.266Z,14.20
2019-04-25T00:28:12.051Z,14.30
2019-04-25T00:30:43.575Z,14.50
2019-04-25T00:33:14.731Z,14.60
2019-04-25T00:35:45.734Z,14.60
2019-04-25T00:38:16.136Z,14.40
2019-04-25T00:40:46.897Z,14.20
2019-04-25T00:43:17.255Z,14.10
2019-04-25T00:45:48.013Z,14.10
2019-04-25T00:48:20.270Z,14.00
2019-04-25T00:50:53.486Z,14.00
2019-04-25T00:53:23.207Z,14.10
2019-04-25T00:55:53.875Z,14.30
2019-04-25T00:58:39.109Z,14.40
2019-04-25T01:01:31.624Z,14.30
2019-04-25T01:04:02.449Z,14.10
2019-04-25T01:06:32.926Z,13.90
2019-04-25T01:09:05.156Z,13.80
2019-04-25T01:11:35.793Z,13.80
2019-04-25T01:14:06.149Z,13.70
2019-04-25T01:16:36.939Z,13.60
2019-04-25T01:19:07.282Z,13.50
2019-04-25T01:21:37.894Z,13.40
2019-04-25T01:24:08.730Z,13.40
2019-04-25T01:26:39.499Z,13.40
2019-04-25T01:29:09.884Z,13.40
2019-04-25T01:31:40.945Z,13.40
2019-04-25T01:34:14.187Z,13.40
2019-04-25T01:37:04.128Z,13.30
2019-04-25T01:39:49.708Z,13.30
2019-04-25T01:42:50.198Z,13.30
2019-04-25T01:45:23.975Z,13.20
2019-04-25T01:47:55.232Z,13.20
2019-04-25T01:50:26.663Z,13.20
2019-04-25T01:52:57.304Z,13.20
2019-04-25T01:55:28.265Z,13.20
2019-04-25T01:57:59.375Z,13.20
2019-04-25T02:00:38.624Z,13.30
2019-04-25T02:03:09.194Z,13.30
2019-04-25T02:05:39.553Z,13.30
2019-04-25T02:08:09.906Z,13.40
2019-04-25T02:10:40.789Z,13.50
2019-04-25T02:13:13.992Z,13.40
2019-04-25T02:15:44.329Z,13.30
2019-04-25T02:18:14.730Z,13.20
2019-04-25T02:20:45.074Z,13.30
2019-04-25T02:23:16.036Z,13.20
2019-04-25T02:25:47.678Z,13.20
2019-04-25T02:28:17.980Z,13.10
2019-04-25T02:30:48.311Z,13.10
2019-04-25T02:33:19.043Z,13.00
2019-04-25T02:35:49.404Z,13.10
2019-04-25T02:38:20.913Z,13.20
2019-04-25T02:40:51.323Z,13.20
2019-04-25T02:43:23.924Z,13.20
2019-04-25T02:46:18.377Z,12.90
2019-04-25T02:49:09.383Z,12.90
2019-04-25T02:51:47.153Z,12.80
2019-04-25T02:54:17.474Z,12.80
2019-04-25T02:56:48.621Z,12.90
2019-04-25T02:59:18.999Z,13.00
2019-04-25T03:01:50.234Z,13.00
2019-04-25T03:04:20.570Z,13.00
2019-04-25T03:06:51.020Z,13.00
2019-04-25T03:09:21.660Z,12.90
2019-04-25T03:11:54.635Z,12.90
2019-04-25T03:14:26.814Z,13.00
2019-04-25T03:16:57.633Z,13.00
2019-04-25T03:19:48.632Z,12.90
2019-04-25T03:22:26.402Z,12.90
2019-04-25T03:24:55.323Z,12.90
2019-04-25T03:27:25.667Z,12.80
2019-04-25T03:29:56.432Z,12.90
2019-04-25T03:32:28.474Z,12.90
2019-04-25T03:34:59.185Z,12.80
2019-04-25T03:37:29.820Z,12.90
2019-04-25T03:40:00.197Z,12.80
2019-04-25T03:42:30.820Z,12.80
2019-04-25T03:45:01.545Z,12.90
2019-04-25T03:47:33.231Z,12.80
2019-04-25T03:50:05.856Z,12.70
2019-04-25T03:52:36.276Z,12.80
2019-04-25T03:55:14.556Z,12.80
2019-04-25T03:57:45.228Z,12.80
2019-04-25T04:00:16.513Z,12.80
2019-04-25T04:02:46.859Z,12.80
2019-04-25T04:05:17.672Z,12.80
2019-04-25T04:07:48.257Z,12.80
2019-04-25T04:10:21.110Z,12.80
2019-04-25T04:12:51.127Z,12.80
2019-04-25T04:15:23.179Z,12.90
2019-04-25T04:18:01.232Z,12.90
2019-04-25T04:20:57.098Z,12.90
2019-04-25T04:23:33.871Z,12.90
2019-04-25T04:26:05.502Z,12.90
2019-04-25T04:28:36.520Z,13.00
2019-04-25T04:31:08.298Z,13.10
2019-04-25T04:33:39.021Z,13.10
2019-04-25T04:36:09.307Z,13.20
2019-04-25T04:38:40.357Z,13.20
2019-04-25T04:41:11.372Z,13.20
2019-04-25T04:43:44.025Z,13.20
2019-04-25T04:46:17.166Z,13.30
2019-04-25T04:48:46.646Z,13.10
2019-04-25T04:51:17.029Z,13.30
2019-04-25T04:53:47.725Z,13.30
2019-04-25T04:56:19.378Z,13.40
2019-04-25T04:58:49.849Z,13.40
2019-04-25T05:01:23.176Z,13.40
2019-04-25T05:04:05.379Z,13.40
2019-04-25T05:06:54.672Z,13.50
2019-04-25T05:09:28.293Z,13.50
2019-04-25T05:11:58.684Z,13.50
2019-04-25T05:14:29.541Z,13.50
2019-04-25T05:17:00.254Z,13.60
2019-04-25T05:19:30.696Z,13.60
2019-04-25T05:22:01.063Z,13.70
2019-04-25T05:24:31.589Z,13.80
2019-04-25T05:27:03.836Z,13.80
2019-04-25T05:29:34.985Z,13.70
2019-04-25T05:32:05.377Z,13.80
2019-04-25T05:34:36.129Z,13.70
2019-04-25T05:37:06.632Z,13.60
2019-04-25T05:39:37.567Z,13.50
2019-04-25T05:42:42.220Z,13.50
2019-04-25T05:45:13.068Z,13.40
2019-04-25T05:47:44.837Z,13.50
2019-04-25T05:50:15.791Z,13.50
2019-04-25T05:52:46.237Z,13.60
2019-04-25T05:55:18.960Z,13.60
2019-04-25T05:57:50.235Z,13.70
2019-04-25T06:00:20.823Z,13.60
2019-04-25T06:02:51.173Z,13.70
2019-04-25T06:05:23.434Z,13.70
2019-04-25T06:07:54.356Z,13.80
2019-04-25T06:10:36.778Z,13.80
2019-04-25T06:13:38.417Z,13.90
2019-04-25T06:16:28.242Z,14.10
2019-04-25T06:19:18.445Z,14.20
2019-04-25T06:21:49.328Z,14.40
2019-04-25T06:24:32.793Z,14.60
2019-04-25T06:27:26.996Z,14.70
2019-04-25T06:30:20.615Z,14.90
2019-04-25T06:32:51.021Z,14.90
2019-04-25T06:35:24.486Z,14.70
2019-04-25T06:37:54.356Z,14.90
2019-04-25T06:40:29.308Z,15.00
2019-04-25T06:42:58.491Z,15.00
2019-04-25T06:45:37.214Z,15.10
2019-04-25T06:48:33.964Z,15.00
2019-04-25T06:51:05.794Z,15.10
2019-04-25T06:53:36.427Z,15.00
2019-04-25T06:56:07.261Z,15.00
2019-04-25T06:58:37.662Z,15.00
2019-04-25T07:01:08.391Z,15.20
2019-04-25T07:03:38.731Z,15.30
2019-04-25T07:06:09.078Z,15.30
2019-04-25T07:08:39.515Z,15.30
2019-04-25T07:11:14.019Z,15.50
2019-04-25T07:13:44.493Z,15.70
2019-04-25T07:16:14.842Z,15.80
2019-04-25T07:18:45.186Z,15.60
2019-04-25T07:21:16.293Z,15.90
2019-04-25T07:23:54.227Z,15.90
2019-04-25T07:26:47.467Z,15.70
2019-04-25T07:29:28.444Z,15.80
2019-04-25T07:32:11.844Z,16.10
2019-04-25T07:34:43.812Z,16.00
2019-04-25T07:37:14.445Z,16.20
2019-04-25T07:39:45.263Z,16.50
2019-04-25T07:42:15.761Z,16.60
2019-04-25T07:44:52.573Z,16.80
2019-04-25T07:47:18.237Z,17.20
2019-04-25T07:49:48.669Z,17.60
2019-04-25T07:52:19.477Z,17.60
2019-04-25T07:54:50.227Z,17.90
2019-04-25T07:57:20.613Z,18.30
2019-04-25T07:59:52.119Z,18.10
2019-04-25T08:02:23.425Z,18.20
2019-04-25T08:04:54.135Z,18.30
2019-04-25T08:07:28.014Z,18.30
2019-04-25T08:09:58.803Z,18.20
2019-04-25T08:12:29.512Z,18.40
2019-04-25T08:15:08.468Z,18.30
2019-04-25T08:18:03.918Z,18.50
2019-04-25T08:20:37.056Z,18.30
2019-04-25T08:23:07.974Z,18.90
2019-04-25T08:25:40.287Z,19.20
2019-04-25T08:28:10.469Z,19.30
2019-04-25T08:30:41.737Z,19.20
2019-04-25T08:33:13.773Z,19.20
2019-04-25T08:36:03.014Z,19.30
2019-04-25T08:38:17.151Z,19.50
2019-04-25T08:40:47.537Z,20.00
2019-04-25T08:43:17.879Z,19.70
2019-04-25T08:45:48.295Z,19.50
2019-04-25T08:48:18.652Z,19.40
2019-04-25T08:51:14.053Z,19.90
2019-04-25T08:53:59.107Z,19.80
2019-04-25T08:56:35.093Z,19.50
2019-04-25T08:59:34.138Z,19.20
2019-04-25T09:02:15.885Z,19.30
2019-04-25T09:05:04.177Z,19.50
2019-04-25T09:07:35.501Z,20.10
2019-04-25T09:10:07.210Z,20.30
2019-04-25T09:12:37.850Z,20.10
2019-04-25T09:15:08.423Z,20.20
2019-04-25T09:17:39.436Z,20.40
2019-04-25T09:20:10.805Z,21.00
2019-04-25T09:22:41.979Z,21.70
2019-04-25T09:25:13.747Z,21.60
2019-04-25T09:27:45.797Z,21.10
2019-04-25T09:30:18.119Z,21.40
2019-04-25T09:32:49.136Z,21.70
2019-04-25T09:35:20.223Z,21.90
2019-04-25T09:37:50.677Z,21.90
2019-04-25T09:40:21.117Z,22.00
2019-04-25T09:42:51.537Z,21.70
2019-04-25T09:45:39.785Z,21.20
2019-04-25T09:48:34.343Z,20.70
2019-04-25T09:51:09.241Z,21.00
2019-04-25T09:53:45.932Z,21.20
2019-04-25T09:56:19.037Z,21.60
2019-04-25T09:58:55.598Z,21.70
2019-04-25T10:01:27.960Z,21.50
2019-04-25T10:03:58.621Z,21.00
2019-04-25T10:06:29.021Z,20.80
2019-04-25T10:08:59.688Z,21.40
2019-04-25T10:11:30.681Z,21.40
2019-04-25T10:14:45.004Z,21.40
2019-04-25T10:17:15.071Z,21.20
2019-04-25T10:19:45.709Z,20.80
2019-04-25T10:22:16.074Z,20.50
2019-04-25T10:24:57.577Z,20.20
2019-04-25T10:27:18.625Z,19.80
2019-04-25T10:29:53.730Z,19.80
2019-04-25T10:32:21.092Z,19.80
2019-04-25T10:34:51.713Z,20.00
2019-04-25T10:37:22.004Z,19.90
2019-04-25T10:39:55.262Z,19.90
2019-04-25T10:42:24.542Z,20.00
2019-04-25T10:44:56.654Z,20.20
2019-04-25T10:47:26.968Z,20.40
2019-04-25T10:49:59.095Z,20.30
2019-04-25T10:52:29.427Z,20.20
2019-04-25T10:55:00.129Z,20.10
2019-04-25T10:57:31.015Z,20.20
2019-04-25T11:00:07.603Z,20.20
2019-04-25T11:02:33.906Z,20.30
2019-04-25T11:05:10.246Z,20.30
2019-04-25T11:07:41.957Z,20.30
2019-04-25T11:10:13.972Z,20.50
2019-04-25T11:12:47.314Z,21.00
2019-04-25T11:15:18.093Z,21.10
2019-04-25T11:17:48.730Z,21.50
2019-04-25T11:20:31.268Z,21.50
2019-04-25T11:23:03.649Z,22.00
2019-04-25T11:25:34.275Z,22.30
2019-04-25T11:28:07.359Z,22.40
2019-04-25T11:30:38.166Z,22.70
2019-04-25T11:33:10.866Z,22.90
2019-04-25T11:35:41.262Z,22.60
2019-04-25T11:38:14.602Z,22.70
2019-04-25T11:40:55.129Z,22.90
2019-04-25T11:43:25.656Z,22.40
2019-04-25T11:45:57.102Z,22.30
2019-04-25T11:48:27.509Z,22.50
2019-04-25T11:50:57.909Z,22.60
2019-04-25T11:53:28.337Z,22.80
2019-04-25T11:55:58.918Z,23.40
2019-04-25T11:58:29.458Z,23.80
2019-04-25T12:00:59.917Z,23.60
2019-04-25T12:03:30.726Z,23.20
2019-04-25T12:06:01.408Z,23.60
2019-04-25T12:08:33.476Z,23.70
2019-04-25T12:11:05.836Z,23.10
2019-04-25T12:13:36.508Z,23.60
2019-04-25T12:16:07.382Z,24.10
2019-04-25T12:18:38.362Z,24.90
2019-04-25T12:21:28.166Z,24.50
2019-04-25T12:24:05.886Z,25.00
2019-04-25T12:26:36.673Z,24.70
2019-04-25T12:29:07.298Z,24.70
2019-04-25T12:31:37.631Z,25.50
2019-04-25T12:34:08.042Z,26.20
2019-04-25T12:36:38.430Z,26.60
2019-04-25T12:39:09.842Z,26.20
2019-04-25T12:41:40.190Z,25.40
2019-04-25T12:44:28.410Z,25.50
2019-04-25T12:47:01.082Z,25.00
2019-04-25T12:49:31.502Z,25.30
2019-04-25T12:52:01.886Z,25.90
2019-04-25T12:54:33.932Z,26.40
2019-04-25T12:57:06.754Z,25.80
2019-04-25T13:00:09.429Z,26.00
2019-04-25T13:02:39.812Z,25.70
2019-04-25T13:05:11.185Z,25.10
2019-04-25T13:07:42.055Z,24.60
2019-04-25T13:10:13.435Z,24.00
2019-04-25T13:12:45.091Z,24.10
2019-04-25T13:15:15.901Z,24.80
2019-04-25T13:17:46.339Z,25.60
2019-04-25T13:20:16.766Z,26.20
2019-04-25T13:22:47.181Z,26.40
2019-04-25T13:25:19.271Z,26.70
2019-04-25T13:28:17.968Z,26.50
2019-04-25T13:31:12.183Z,27.00
2019-04-25T13:33:54.154Z,27.10
2019-04-25T13:36:24.698Z,27.30
2019-04-25T13:38:55.076Z,27.10
2019-04-25T13:41:25.499Z,27.30
2019-04-25T13:43:56.646Z,27.30
2019-04-25T13:46:28.179Z,27.10
2019-04-25T13:48:58.509Z,27.00
2019-04-25T13:51:28.859Z,27.30
2019-04-25T13:53:59.246Z,27.80
2019-04-25T13:56:30.661Z,27.50
2019-04-25T13:59:01.196Z,27.90
2019-04-25T14:01:36.539Z,28.30
2019-04-25T14:04:09.426Z,28.00
2019-04-25T14:06:41.140Z,28.60
2019-04-25T14:09:16.974Z,28.80
2019-04-25T14:11:47.343Z,28.80
2019-04-25T14:14:17.712Z,28.10
2019-04-25T14:17:07.804Z,28.60
2019-04-25T14:19:55.947Z,28.70
2019-04-25T14:22:27.519Z,28.40
2019-04-25T14:24:58.009Z,28.10
2019-04-25T14:27:28.782Z,27.80
2019-04-25T14:29:59.368Z,28.00
2019-04-25T14:32:33.925Z,27.00
2019-04-25T14:35:05.048Z,26.90
2019-04-25T14:37:39.564Z,27.70
2019-04-25T14:40:09.511Z,27.50
2019-04-25T14:42:40.183Z,27.20
2019-04-25T14:45:14.895Z,26.60
2019-04-25T14:47:46.012Z,26.20
2019-04-25T14:50:16.401Z,26.10
2019-04-25T14:52:46.938Z,26.30
2019-04-25T14:55:36.953Z,26.40
2019-04-25T14:58:14.162Z,27.10
2019-04-25T15:00:46.863Z,27.00
2019-04-25T15:03:17.291Z,26.60
2019-04-25T15:05:47.794Z,26.30
2019-04-25T15:08:18.241Z,26.30
2019-04-25T15:10:53.171Z,25.90
2019-04-25T15:13:24.411Z,25.80
2019-04-25T15:15:54.843Z,25.70
2019-04-25T15:18:26.912Z,25.60
2019-04-25T15:20:57.602Z,25.60
2019-04-25T15:23:28.313Z,25.70
2019-04-25T15:25:58.973Z,25.70
2019-04-25T15:28:29.986Z,25.70
2019-04-25T15:31:00.828Z,25.90
2019-04-25T15:33:33.118Z,26.10
2019-04-25T15:36:22.479Z,26.40
2019-04-25T15:39:02.938Z,26.40
2019-04-25T15:41:39.917Z,26.30
2019-04-25T15:44:26.641Z,26.10
2019-04-25T15:46:57.690Z,26.20
2019-04-25T15:49:28.775Z,26.40
2019-04-25T15:51:59.153Z,26.10
2019-04-25T15:54:34.892Z,25.80
2019-04-25T15:57:05.364Z,26.00
2019-04-25T15:59:35.847Z,26.30
2019-04-25T16:02:08.479Z,26.30
2019-04-25T16:04:38.998Z,26.20
2019-04-25T16:07:10.524Z,26.00
2019-04-25T16:09:41.354Z,25.70
2019-04-25T16:12:12.253Z,25.70
2019-04-25T16:14:42.798Z,25.60
2019-04-25T16:17:13.598Z,25.60
2019-04-25T16:19:43.952Z,25.60
2019-04-25T16:22:14.647Z,25.60
2019-04-25T16:24:45.359Z,25.60
2019-04-25T16:27:17.442Z,25.50
2019-04-25T16:29:48.254Z,25.50
2019-04-25T16:32:21.408Z,25.50
2019-04-25T16:34:51.792Z,25.50
2019-04-25T16:37:22.346Z,25.40
2019-04-25T16:39:52.758Z,25.40
2019-04-25T16:42:23.135Z,25.30
2019-04-25T16:44:53.541Z,25.10
2019-04-25T16:47:25.529Z,25.00
2019-04-25T16:49:55.872Z,24.90
2019-04-25T16:52:27.557Z,24.80
2019-04-25T16:54:58.369Z,24.60
2019-04-25T16:57:28.966Z,24.50
2019-04-25T16:59:59.360Z,24.50
2019-04-25T17:02:38.296Z,24.60
2019-04-25T17:05:10.456Z,24.70
2019-04-25T17:07:41.061Z,24.80
2019-04-25T17:10:12.452Z,24.90
2019-04-25T17:12:42.803Z,25.00
2019-04-25T17:15:28.236Z,24.90
2019-04-25T17:18:08.628Z,24.90
2019-04-25T17:21:11.608Z,24.90
2019-04-25T17:23:41.021Z,24.80
2019-04-25T17:26:11.723Z,24.80
2019-04-25T17:28:43.873Z,24.80
2019-04-25T17:31:45.307Z,24.70
2019-04-25T17:34:38.947Z,24.70
2019-04-25T17:37:20.167Z,24.60
2019-04-25T17:40:02.891Z,24.60
2019-04-25T17:42:33.753Z,24.50
2019-04-25T17:45:06.698Z,24.40
2019-04-25T17:47:37.471Z,24.30
2019-04-25T17:50:09.305Z,24.20
2019-04-25T17:52:40.643Z,24.10
2019-04-25T17:55:11.705Z,24.10
2019-04-25T17:57:42.136Z,24.10
2019-04-25T18:00:22.633Z,24.00
2019-04-25T18:02:58.753Z,23.90
2019-04-25T18:05:25.046Z,23.90
2019-04-25T18:07:55.450Z,23.90
2019-04-25T18:10:26.370Z,23.80
2019-04-25T18:12:56.998Z,23.80
2019-04-25T18:15:37.631Z,23.90
2019-04-25T18:18:12.434Z,23.90
2019-04-25T18:20:44.569Z,23.90
2019-04-25T18:23:52.489Z,23.90
2019-04-25T18:26:52.371Z,23.80
2019-04-25T18:29:23.871Z,23.60
2019-04-25T18:31:54.785Z,23.70
2019-04-25T18:34:31.061Z,23.70
2019-04-25T18:37:24.304Z,23.70
2019-04-25T18:40:03.252Z,23.60
2019-04-25T18:42:51.480Z,23.40
2019-04-25T18:45:26.596Z,23.20
2019-04-25T18:47:57.026Z,23.40
2019-04-25T18:50:29.702Z,23.40
2019-04-25T18:53:19.022Z,23.30
2019-04-25T18:56:01.970Z,23.20
2019-04-25T18:58:54.142Z,23.20
2019-04-25T19:01:49.267Z,23.20
2019-04-25T19:04:25.929Z,23.10
2019-04-25T19:06:58.262Z,23.00
2019-04-25T19:09:29.212Z,23.00
2019-04-25T19:11:59.823Z,23.00
2019-04-25T19:14:31.184Z,22.90
2019-04-25T19:17:01.760Z,22.80
2019-04-25T19:19:32.414Z,22.70
2019-04-25T19:22:03.190Z,22.60
2019-04-25T19:24:33.977Z,22.70
2019-04-25T19:27:04.740Z,22.70
2019-04-25T19:29:35.283Z,22.50
2019-04-25T19:32:06.072Z,21.90
2019-04-25T19:34:36.916Z,21.30
2019-04-25T19:37:07.599Z,20.40
2019-04-25T19:39:40.562Z,20.40
2019-04-25T19:42:37.150Z,19.60
2019-04-25T19:45:08.080Z,19.90
2019-04-25T19:47:38.566Z,19.70
2019-04-25T19:50:09.134Z,19.40
2019-04-25T19:52:39.972Z,19.10
2019-04-25T19:55:10.598Z,19.00
2019-04-25T19:57:42.367Z,19.10
2019-04-25T20:00:13.684Z,18.80
2019-04-25T20:02:50.953Z,19.10
2019-04-25T20:05:27.341Z,19.10
2019-04-25T20:08:03.798Z,18.60
2019-04-25T20:10:39.750Z,18.20
2019-04-25T20:13:10.529Z,18.70
2019-04-25T20:15:41.418Z,18.40
2019-04-25T20:18:12.017Z,18.60
2019-04-25T20:20:43.452Z,19.00
2019-04-25T20:23:15.141Z,18.80
2019-04-25T20:25:46.309Z,18.80
2019-04-25T20:28:17.492Z,18.80
2019-04-25T20:30:48.546Z,18.90
2019-04-25T20:33:19.879Z,19.00
2019-04-25T20:35:51.226Z,18.90
2019-04-25T20:38:23.251Z,18.70
2019-04-25T20:40:54.295Z,18.70
2019-04-25T20:43:24.902Z,18.90
2019-04-25T20:45:56.466Z,18.70
2019-04-25T20:48:27.344Z,18.70
2019-04-25T20:50:58.200Z,18.70
2019-04-25T20:53:28.739Z,18.80
2019-04-25T20:55:59.205Z,18.80
2019-04-25T20:58:31.000Z,18.30
2019-04-25T21:01:03.162Z,18.40
2019-04-25T21:03:33.911Z,18.70
2019-04-25T21:06:10.787Z,18.60
2019-04-25T21:08:41.703Z,18.80
2019-04-25T21:11:12.742Z,18.70
2019-04-25T21:14:01.937Z,18.70
2019-04-25T21:16:58.611Z,18.60
2019-04-25T21:19:31.326Z,18.50
2019-04-25T21:22:02.379Z,18.00
2019-04-25T21:24:33.596Z,17.90
2019-04-25T21:27:08.918Z,18.00
2019-04-25T21:29:39.938Z,18.10
2019-04-25T21:32:10.363Z,18.10
2019-04-25T21:34:40.804Z,18.20
2019-04-25T21:37:11.843Z,17.70
2019-04-25T21:40:10.675Z,17.80
2019-04-25T21:42:54.705Z,17.70
2019-04-25T21:45:26.397Z,17.70
2019-04-25T21:47:57.830Z,17.60
2019-04-25T21:50:29.339Z,17.80
2019-04-25T21:53:01.292Z,17.70
2019-04-25T21:55:32.274Z,17.40
2019-04-25T21:58:03.358Z,17.70
2019-04-25T22:01:05.555Z,17.90
2019-04-25T22:03:38.340Z,17.80
2019-04-25T22:06:09.563Z,17.30
2019-04-25T22:08:40.196Z,17.30
2019-04-25T22:11:13.080Z,17.30
2019-04-25T22:13:46.393Z,17.30
2019-04-25T22:16:18.688Z,17.40
2019-04-25T22:18:50.097Z,17.50
2019-04-25T22:21:21.888Z,17.60
2019-04-25T22:24:03.269Z,17.70
2019-04-25T22:26:25.493Z,17.80
2019-04-25T22:28:56.813Z,17.90
2019-04-25T22:31:33.527Z,18.10
2019-04-25T22:34:18.219Z,18.10
2019-04-25T22:36:49.336Z,18.00
2019-04-25T22:39:19.788Z,18.00
2019-04-25T22:41:51.413Z,17.90
2019-04-25T22:44:22.971Z,17.70
2019-04-25T22:46:54.763Z,17.90
2019-04-25T22:49:25.823Z,17.90
2019-04-25T22:51:56.231Z,17.60
2019-04-25T22:54:28.282Z,17.60
2019-04-25T22:56:58.639Z,17.50
2019-04-25T22:59:29.263Z,17.50
2019-04-25T23:02:09.632Z,17.60
2019-04-25T23:05:12.080Z,17.50
2019-04-25T23:07:38.343Z,17.70
2019-04-25T23:10:10.287Z,17.50
2019-04-25T23:12:41.302Z,17.60
2019-04-25T23:15:13.050Z,17.70
2019-04-25T23:17:43.800Z,17.70
2019-04-25T23:20:16.154Z,17.70
2019-04-25T23:22:46.582Z,17.60
2019-04-25T23:25:19.668Z,17.60
2019-04-25T23:28:06.154Z,17.50
2019-04-25T23:30:55.996Z,17.50
2019-04-25T23:33:26.608Z,17.50
2019-04-25T23:35:57.417Z,17.10
2019-04-25T23:38:27.769Z,17.20
2019-04-25T23:40:58.117Z,16.90
2019-04-25T23:43:28.828Z,17.10
2019-04-25T23:45:59.747Z,17.30
2019-04-25T23:48:31.610Z,17.40
2019-04-25T23:51:01.957Z,17.40
2019-04-25T23:53:32.330Z,17.30
2019-04-25T23:56:02.680Z,17.20
2019-04-25T23:58:33.537Z,17.00
